Terminal Aerodrome Forecast
Issued by NWS Central Illinois

Home | Current Version | Previous Version | Text Only | Print | Product List | Glossary On
Versions: 1 2 3 4 5 6 7 8 9 10 11 12 13 14 15
207
FTUS43 KILX 072325
TAFPIA
TAF
KPIA 072325Z 0800/0824 29007KT P6SM SCT025 BKN050
     FM080700 29012KT P6SM VCSH OVC020
     FM081400 29014G22KT 3SM -SN BR OVC015=

USA.gov is the U.S. government's official web portal to all federal, state and local government web resources and services.